sensor_id;sensor_type;location;lat;lon;timestamp;temperature;humidity
3300;DHT22;1662;49.310;8.134;2023-07-16T00:01:44;20.30;99.90
3300;DHT22;1662;49.310;8.134;2023-07-16T00:04:10;20.30;99.90
3300;DHT22;1662;49.310;8.134;2023-07-16T00:06:35;20.30;99.90
3300;DHT22;1662;49.310;8.134;2023-07-16T00:09:01;20.30;99.90
3300;DHT22;1662;49.310;8.134;2023-07-16T00:11:26;20.30;99.90
3300;DHT22;1662;49.310;8.134;2023-07-16T00:13:52;20.30;99.90
3300;DHT22;1662;49.310;8.134;2023-07-16T00:16:17;20.20;99.90
3300;DHT22;1662;49.310;8.134;2023-07-16T00:18:44;20.20;99.90
3300;DHT22;1662;49.310;8.134;2023-07-16T00:21:10;20.20;99.90
3300;DHT22;1662;49.310;8.134;2023-07-16T00:23:36;20.20;99.90
3300;DHT22;1662;49.310;8.134;2023-07-16T00:26:02;20.10;99.90
3300;DHT22;1662;49.310;8.134;2023-07-16T00:28:28;19.90;99.90
3300;DHT22;1662;49.310;8.134;2023-07-16T00:30:53;20.00;99.90
3300;DHT22;1662;49.310;8.134;2023-07-16T00:33:19;20.00;99.90
3300;DHT22;1662;49.310;8.134;2023-07-16T00:35:48;20.00;99.90
3300;DHT22;1662;49.310;8.134;2023-07-16T00:38:14;20.00;99.90
3300;DHT22;1662;49.310;8.134;2023-07-16T00:40:40;20.00;99.90
3300;DHT22;1662;49.310;8.134;2023-07-16T00:43:08;20.00;99.90
3300;DHT22;1662;49.310;8.134;2023-07-16T00:45:34;20.00;99.90
3300;DHT22;1662;49.310;8.134;2023-07-16T00:47:59;20.00;99.90
3300;DHT22;1662;49.310;8.134;2023-07-16T00:50:25;19.90;99.90
3300;DHT22;1662;49.310;8.134;2023-07-16T00:52:51;19.90;99.90
3300;DHT22;1662;49.310;8.134;2023-07-16T00:55:16;19.80;99.90
3300;DHT22;1662;49.310;8.134;2023-07-16T00:57:42;19.70;99.90
3300;DHT22;1662;49.310;8.134;2023-07-16T01:00:09;19.70;99.90
3300;DHT22;1662;49.310;8.134;2023-07-16T01:02:35;19.70;99.90
3300;DHT22;1662;49.310;8.134;2023-07-16T01:05:01;19.60;99.90
3300;DHT22;1662;49.310;8.134;2023-07-16T01:07:28;19.60;99.90
3300;DHT22;1662;49.310;8.134;2023-07-16T01:09:58;19.50;99.90
3300;DHT22;1662;49.310;8.134;2023-07-16T01:12:25;19.50;99.90
3300;DHT22;1662;49.310;8.134;2023-07-16T01:14:52;19.50;99.90
3300;DHT22;1662;49.310;8.134;2023-07-16T01:17:18;19.50;99.90
3300;DHT22;1662;49.310;8.134;2023-07-16T01:19:43;19.40;99.90
3300;DHT22;1662;49.310;8.134;2023-07-16T01:28:04;19.40;99.90
3300;DHT22;1662;49.310;8.134;2023-07-16T01:30:31;19.40;99.90
3300;DHT22;1662;49.310;8.134;2023-07-16T01:32:57;19.40;99.90
3300;DHT22;1662;49.310;8.134;2023-07-16T01:35:24;19.30;99.90
3300;DHT22;1662;49.310;8.134;2023-07-16T01:37:50;19.30;99.90
3300;DHT22;1662;49.310;8.134;2023-07-16T01:40:16;19.20;99.90
3300;DHT22;1662;49.310;8.134;2023-07-16T01:42:42;19.20;99.90
3300;DHT22;1662;49.310;8.134;2023-07-16T01:45:08;19.30;99.90
3300;DHT22;1662;49.310;8.134;2023-07-16T01:50:29;19.20;99.90
3300;DHT22;1662;49.310;8.134;2023-07-16T01:52:55;19.20;99.90
3300;DHT22;1662;49.310;8.134;2023-07-16T01:55:20;19.20;99.90
3300;DHT22;1662;49.310;8.134;2023-07-16T01:57:46;19.10;99.90
3300;DHT22;1662;49.310;8.134;2023-07-16T02:00:11;19.10;99.90
3300;DHT22;1662;49.310;8.134;2023-07-16T02:02:37;19.10;99.90
3300;DHT22;1662;49.310;8.134;2023-07-16T02:05:05;19.10;99.90
3300;DHT22;1662;49.310;8.134;2023-07-16T02:07:31;19.00;99.90
3300;DHT22;1662;49.310;8.134;2023-07-16T02:09:57;19.00;99.90
3300;DHT22;1662;49.310;8.134;2023-07-16T02:12:22;19.00;99.90
3300;DHT22;1662;49.310;8.134;2023-07-16T02:14:48;18.90;99.90
3300;DHT22;1662;49.310;8.134;2023-07-16T02:17:15;18.90;99.90
3300;DHT22;1662;49.310;8.134;2023-07-16T02:19:41;18.90;99.90
3300;DHT22;1662;49.310;8.134;2023-07-16T02:22:07;18.90;99.90
3300;DHT22;1662;49.310;8.134;2023-07-16T02:24:33;18.90;99.90
3300;DHT22;1662;49.310;8.134;2023-07-16T02:26:58;18.80;99.90
3300;DHT22;1662;49.310;8.134;2023-07-16T02:29:24;18.80;99.90
3300;DHT22;1662;49.310;8.134;2023-07-16T02:31:50;18.80;99.90
3300;DHT22;1662;49.310;8.134;2023-07-16T02:34:15;18.70;99.90
3300;DHT22;1662;49.310;8.134;2023-07-16T02:36:41;18.60;99.90
3300;DHT22;1662;49.310;8.134;2023-07-16T02:39:06;18.70;99.90
3300;DHT22;1662;49.310;8.134;2023-07-16T02:41:32;18.60;99.90
3300;DHT22;1662;49.310;8.134;2023-07-16T02:44:03;18.70;99.90
3300;DHT22;1662;49.310;8.134;2023-07-16T02:46:29;18.60;99.90
3300;DHT22;1662;49.310;8.134;2023-07-16T02:48:54;18.50;99.90
3300;DHT22;1662;49.310;8.134;2023-07-16T02:51:20;18.50;99.90
3300;DHT22;1662;49.310;8.134;2023-07-16T02:53:45;18.50;99.90
3300;DHT22;1662;49.310;8.134;2023-07-16T02:56:11;18.50;99.90
3300;DHT22;1662;49.310;8.134;2023-07-16T02:58:37;18.50;99.90
3300;DHT22;1662;49.310;8.134;2023-07-16T03:01:02;18.50;99.90
3300;DHT22;1662;49.310;8.134;2023-07-16T03:03:28;18.50;99.90
3300;DHT22;1662;49.310;8.134;2023-07-16T03:05:53;18.60;99.90
3300;DHT22;1662;49.310;8.134;2023-07-16T03:08:19;18.50;99.90
3300;DHT22;1662;49.310;8.134;2023-07-16T03:10:45;18.50;99.90
3300;DHT22;1662;49.310;8.134;2023-07-16T03:13:12;18.50;99.90
3300;DHT22;1662;49.310;8.134;2023-07-16T03:15:37;18.50;99.90
3300;DHT22;1662;49.310;8.134;2023-07-16T03:18:03;18.40;99.90
3300;DHT22;1662;49.310;8.134;2023-07-16T03:20:28;18.40;99.90
3300;DHT22;1662;49.310;8.134;2023-07-16T03:22:54;18.40;99.90
3300;DHT22;1662;49.310;8.134;2023-07-16T03:25:20;18.40;99.90
3300;DHT22;1662;49.310;8.134;2023-07-16T03:27:45;18.40;99.90
3300;DHT22;1662;49.310;8.134;2023-07-16T03:30:11;18.30;99.90
3300;DHT22;1662;49.310;8.134;2023-07-16T03:32:36;18.30;99.90
3300;DHT22;1662;49.310;8.134;2023-07-16T03:35:02;18.20;99.90
3300;DHT22;1662;49.310;8.134;2023-07-16T03:37:30;18.20;99.90
3300;DHT22;1662;49.310;8.134;2023-07-16T03:39:56;18.20;99.90
3300;DHT22;1662;49.310;8.134;2023-07-16T03:42:21;18.20;99.90
3300;DHT22;1662;49.310;8.134;2023-07-16T03:44:47;18.20;99.90
3300;DHT22;1662;49.310;8.134;2023-07-16T03:47:13;18.20;99.90
3300;DHT22;1662;49.310;8.134;2023-07-16T03:49:38;18.20;99.90
3300;DHT22;1662;49.310;8.134;2023-07-16T03:52:05;18.20;99.90
3300;DHT22;1662;49.310;8.134;2023-07-16T03:54:31;18.20;99.90
3300;DHT22;1662;49.310;8.134;2023-07-16T03:56:56;18.20;99.90
3300;DHT22;1662;49.310;8.134;2023-07-16T03:59:22;18.20;99.90
3300;DHT22;1662;49.310;8.134;2023-07-16T04:01:47;18.20;99.90
3300;DHT22;1662;49.310;8.134;2023-07-16T04:04:15;18.20;99.90
3300;DHT22;1662;49.310;8.134;2023-07-16T04:06:41;18.20;99.90
3300;DHT22;1662;49.310;8.134;2023-07-16T04:09:06;18.10;99.90
3300;DHT22;1662;49.310;8.134;2023-07-16T04:11:32;18.20;99.90
3300;DHT22;1662;49.310;8.134;2023-07-16T04:13:57;18.10;99.90
3300;DHT22;1662;49.310;8.134;2023-07-16T04:16:23;18.10;99.90
3300;DHT22;1662;49.310;8.134;2023-07-16T04:18:49;18.10;99.90
3300;DHT22;1662;49.310;8.134;2023-07-16T04:21:14;18.10;99.90
3300;DHT22;1662;49.310;8.134;2023-07-16T04:23:40;18.20;99.90
3300;DHT22;1662;49.310;8.134;2023-07-16T04:26:05;18.10;99.90
3300;DHT22;1662;49.310;8.134;2023-07-16T04:28:31;18.10;99.90
3300;DHT22;1662;49.310;8.134;2023-07-16T04:30:59;18.10;99.90
3300;DHT22;1662;49.310;8.134;2023-07-16T04:33:24;18.10;99.90
3300;DHT22;1662;49.310;8.134;2023-07-16T04:35:50;18.20;99.90
3300;DHT22;1662;49.310;8.134;2023-07-16T04:38:18;18.10;99.90
3300;DHT22;1662;49.310;8.134;2023-07-16T04:40:44;18.20;99.90
3300;DHT22;1662;49.310;8.134;2023-07-16T04:43:09;18.20;99.90
3300;DHT22;1662;49.310;8.134;2023-07-16T04:45:35;18.20;99.90
3300;DHT22;1662;49.310;8.134;2023-07-16T04:48:01;18.10;99.90
3300;DHT22;1662;49.310;8.134;2023-07-16T04:50:27;18.20;99.90
3300;DHT22;1662;49.310;8.134;2023-07-16T04:52:52;18.20;99.90
3300;DHT22;1662;49.310;8.134;2023-07-16T04:55:18;18.20;99.90
3300;DHT22;1662;49.310;8.134;2023-07-16T04:57:43;18.30;99.90
3300;DHT22;1662;49.310;8.134;2023-07-16T05:00:09;18.20;99.90
3300;DHT22;1662;49.310;8.134;2023-07-16T05:02:35;18.30;99.90
3300;DHT22;1662;49.310;8.134;2023-07-16T05:05:01;18.40;99.90
3300;DHT22;1662;49.310;8.134;2023-07-16T05:07:26;18.40;99.90
3300;DHT22;1662;49.310;8.134;2023-07-16T05:09:52;18.40;99.90
3300;DHT22;1662;49.310;8.134;2023-07-16T05:12:20;18.30;99.90
3300;DHT22;1662;49.310;8.134;2023-07-16T05:14:49;18.30;99.90
3300;DHT22;1662;49.310;8.134;2023-07-16T05:17:15;18.30;99.90
3300;DHT22;1662;49.310;8.134;2023-07-16T05:19:41;18.40;99.90
3300;DHT22;1662;49.310;8.134;2023-07-16T05:22:07;18.40;99.90
3300;DHT22;1662;49.310;8.134;2023-07-16T05:24:33;18.40;99.90
3300;DHT22;1662;49.310;8.134;2023-07-16T05:26:59;18.50;99.90
3300;DHT22;1662;49.310;8.134;2023-07-16T05:29:24;18.50;99.90
3300;DHT22;1662;49.310;8.134;2023-07-16T05:31:52;18.50;99.90
3300;DHT22;1662;49.310;8.134;2023-07-16T05:34:18;18.40;99.90
3300;DHT22;1662;49.310;8.134;2023-07-16T05:36:44;18.40;99.90
3300;DHT22;1662;49.310;8.134;2023-07-16T05:39:12;18.60;99.90
3300;DHT22;1662;49.310;8.134;2023-07-16T05:41:44;18.70;99.90
3300;DHT22;1662;49.310;8.134;2023-07-16T05:44:10;18.70;99.90
3300;DHT22;1662;49.310;8.134;2023-07-16T05:46:35;18.90;99.90
3300;DHT22;1662;49.310;8.134;2023-07-16T05:49:01;18.90;99.90
3300;DHT22;1662;49.310;8.134;2023-07-16T05:51:27;18.90;99.90
3300;DHT22;1662;49.310;8.134;2023-07-16T05:53:52;19.00;99.90
3300;DHT22;1662;49.310;8.134;2023-07-16T05:56:18;19.00;99.90
3300;DHT22;1662;49.310;8.134;2023-07-16T05:58:43;18.90;99.90
3300;DHT22;1662;49.310;8.134;2023-07-16T06:01:09;19.00;99.90
3300;DHT22;1662;49.310;8.134;2023-07-16T06:03:35;18.90;99.90
3300;DHT22;1662;49.310;8.134;2023-07-16T06:06:01;19.10;99.90
3300;DHT22;1662;49.310;8.134;2023-07-16T06:08:26;19.00;99.90
3300;DHT22;1662;49.310;8.134;2023-07-16T06:10:52;18.90;99.90
3300;DHT22;1662;49.310;8.134;2023-07-16T06:13:18;18.90;99.90
3300;DHT22;1662;49.310;8.134;2023-07-16T06:15:43;18.90;99.90
3300;DHT22;1662;49.310;8.134;2023-07-16T06:18:09;18.90;99.90
3300;DHT22;1662;49.310;8.134;2023-07-16T06:20:35;18.90;99.90
3300;DHT22;1662;49.310;8.134;2023-07-16T06:23:00;18.90;99.90
3300;DHT22;1662;49.310;8.134;2023-07-16T06:25:26;18.90;99.90
3300;DHT22;1662;49.310;8.134;2023-07-16T06:27:52;19.00;99.90
3300;DHT22;1662;49.310;8.134;2023-07-16T06:30:19;19.00;99.90
3300;DHT22;1662;49.310;8.134;2023-07-16T06:32:48;19.10;99.90
3300;DHT22;1662;49.310;8.134;2023-07-16T06:35:13;19.20;99.90
3300;DHT22;1662;49.310;8.134;2023-07-16T06:37:41;19.10;99.90
3300;DHT22;1662;49.310;8.134;2023-07-16T06:40:07;19.10;99.90
3300;DHT22;1662;49.310;8.134;2023-07-16T06:42:33;19.10;99.90
3300;DHT22;1662;49.310;8.134;2023-07-16T06:44:59;19.00;99.90
3300;DHT22;1662;49.310;8.134;2023-07-16T06:47:27;19.10;99.90
3300;DHT22;1662;49.310;8.134;2023-07-16T06:49:53;19.20;99.90
3300;DHT22;1662;49.310;8.134;2023-07-16T06:52:22;19.30;99.90
3300;DHT22;1662;49.310;8.134;2023-07-16T06:54:48;19.30;99.90
3300;DHT22;1662;49.310;8.134;2023-07-16T06:57:14;19.30;99.90
3300;DHT22;1662;49.310;8.134;2023-07-16T06:59:39;19.30;99.90
3300;DHT22;1662;49.310;8.134;2023-07-16T07:02:06;19.30;99.90
3300;DHT22;1662;49.310;8.134;2023-07-16T07:04:31;19.50;99.90
3300;DHT22;1662;49.310;8.134;2023-07-16T07:06:57;19.50;99.90
3300;DHT22;1662;49.310;8.134;2023-07-16T07:09:23;19.50;99.90
3300;DHT22;1662;49.310;8.134;2023-07-16T07:11:48;19.50;99.90
3300;DHT22;1662;49.310;8.134;2023-07-16T07:14:16;19.60;99.90
3300;DHT22;1662;49.310;8.134;2023-07-16T07:16:42;19.60;99.90
3300;DHT22;1662;49.310;8.134;2023-07-16T07:19:08;19.60;99.90
3300;DHT22;1662;49.310;8.134;2023-07-16T07:21:34;19.70;99.90
3300;DHT22;1662;49.310;8.134;2023-07-16T07:24:11;19.70;99.90
3300;DHT22;1662;49.310;8.134;2023-07-16T07:26:36;19.70;99.90
3300;DHT22;1662;49.310;8.134;2023-07-16T07:29:02;19.80;99.90
3300;DHT22;1662;49.310;8.134;2023-07-16T07:31:28;19.90;99.90
3300;DHT22;1662;49.310;8.134;2023-07-16T07:33:53;20.00;99.90
3300;DHT22;1662;49.310;8.134;2023-07-16T07:36:19;20.00;99.90
3300;DHT22;1662;49.310;8.134;2023-07-16T07:38:45;20.00;99.90
3300;DHT22;1662;49.310;8.134;2023-07-16T07:41:11;20.10;99.90
3300;DHT22;1662;49.310;8.134;2023-07-16T07:43:39;20.20;99.90
3300;DHT22;1662;49.310;8.134;2023-07-16T07:46:10;20.20;99.90
3300;DHT22;1662;49.310;8.134;2023-07-16T07:48:36;20.20;99.90
3300;DHT22;1662;49.310;8.134;2023-07-16T07:51:02;20.20;99.90
3300;DHT22;1662;49.310;8.134;2023-07-16T07:53:28;20.30;99.90
3300;DHT22;1662;49.310;8.134;2023-07-16T07:55:54;20.20;99.90
3300;DHT22;1662;49.310;8.134;2023-07-16T07:58:26;20.30;99.90
3300;DHT22;1662;49.310;8.134;2023-07-16T08:00:52;20.20;99.90
3300;DHT22;1662;49.310;8.134;2023-07-16T08:03:20;20.20;99.90
3300;DHT22;1662;49.310;8.134;2023-07-16T08:05:48;20.50;99.90
3300;DHT22;1662;49.310;8.134;2023-07-16T08:08:14;20.50;99.90
3300;DHT22;1662;49.310;8.134;2023-07-16T08:10:40;20.60;99.90
3300;DHT22;1662;49.310;8.134;2023-07-16T08:13:06;20.80;99.90
3300;DHT22;1662;49.310;8.134;2023-07-16T08:15:31;20.90;99.90
3300;DHT22;1662;49.310;8.134;2023-07-16T08:17:57;20.90;99.90
3300;DHT22;1662;49.310;8.134;2023-07-16T08:20:25;20.90;99.90
3300;DHT22;1662;49.310;8.134;2023-07-16T08:22:51;21.00;99.90
3300;DHT22;1662;49.310;8.134;2023-07-16T08:25:17;21.00;99.90
3300;DHT22;1662;49.310;8.134;2023-07-16T08:27:43;21.00;99.90
3300;DHT22;1662;49.310;8.134;2023-07-16T08:30:11;20.90;99.90
3300;DHT22;1662;49.310;8.134;2023-07-16T08:32:39;21.10;99.90
3300;DHT22;1662;49.310;8.134;2023-07-16T08:35:05;21.10;99.90
3300;DHT22;1662;49.310;8.134;2023-07-16T08:37:31;21.10;99.90
3300;DHT22;1662;49.310;8.134;2023-07-16T08:39:57;21.20;99.90
3300;DHT22;1662;49.310;8.134;2023-07-16T08:42:23;21.10;99.90
3300;DHT22;1662;49.310;8.134;2023-07-16T08:44:49;21.10;99.90
3300;DHT22;1662;49.310;8.134;2023-07-16T08:47:18;21.10;99.90
3300;DHT22;1662;49.310;8.134;2023-07-16T08:49:54;21.20;99.90
3300;DHT22;1662;49.310;8.134;2023-07-16T08:52:20;21.10;99.90
3300;DHT22;1662;49.310;8.134;2023-07-16T08:54:46;21.30;99.90
3300;DHT22;1662;49.310;8.134;2023-07-16T08:57:13;21.30;99.90
3300;DHT22;1662;49.310;8.134;2023-07-16T08:59:38;21.30;99.90
3300;DHT22;1662;49.310;8.134;2023-07-16T09:02:04;21.40;99.90
3300;DHT22;1662;49.310;8.134;2023-07-16T09:04:32;21.50;99.90
3300;DHT22;1662;49.310;8.134;2023-07-16T09:06:58;21.70;99.90
3300;DHT22;1662;49.310;8.134;2023-07-16T09:09:24;22.00;99.90
3300;DHT22;1662;49.310;8.134;2023-07-16T09:11:50;22.10;99.90
3300;DHT22;1662;49.310;8.134;2023-07-16T09:14:20;22.10;99.90
3300;DHT22;1662;49.310;8.134;2023-07-16T09:16:49;22.10;99.90
3300;DHT22;1662;49.310;8.134;2023-07-16T09:19:15;22.00;99.90
3300;DHT22;1662;49.310;8.134;2023-07-16T09:21:46;22.20;99.90
3300;DHT22;1662;49.310;8.134;2023-07-16T09:24:11;22.40;99.90
3300;DHT22;1662;49.310;8.134;2023-07-16T09:26:37;22.60;99.90
3300;DHT22;1662;49.310;8.134;2023-07-16T09:29:07;22.50;99.90
3300;DHT22;1662;49.310;8.134;2023-07-16T09:31:35;22.50;99.90
3300;DHT22;1662;49.310;8.134;2023-07-16T09:34:01;22.50;99.90
3300;DHT22;1662;49.310;8.134;2023-07-16T09:36:34;22.70;99.90
3300;DHT22;1662;49.310;8.134;2023-07-16T09:38:59;22.90;99.90
3300;DHT22;1662;49.310;8.134;2023-07-16T09:41:27;23.00;99.90
3300;DHT22;1662;49.310;8.134;2023-07-16T09:43:54;22.70;99.90
3300;DHT22;1662;49.310;8.134;2023-07-16T09:46:19;22.90;99.90
3300;DHT22;1662;49.310;8.134;2023-07-16T09:48:45;23.20;99.90
3300;DHT22;1662;49.310;8.134;2023-07-16T09:51:11;23.20;99.90
3300;DHT22;1662;49.310;8.134;2023-07-16T09:53:40;23.30;99.90
3300;DHT22;1662;49.310;8.134;2023-07-16T09:56:08;23.40;99.90
3300;DHT22;1662;49.310;8.134;2023-07-16T09:58:35;23.60;99.90
3300;DHT22;1662;49.310;8.134;2023-07-16T10:01:02;23.60;99.90
3300;DHT22;1662;49.310;8.134;2023-07-16T10:03:31;23.50;99.90
3300;DHT22;1662;49.310;8.134;2023-07-16T10:06:06;23.40;99.90
3300;DHT22;1662;49.310;8.134;2023-07-16T10:08:34;23.20;99.90
3300;DHT22;1662;49.310;8.134;2023-07-16T10:11:00;23.00;99.90
3300;DHT22;1662;49.310;8.134;2023-07-16T10:13:26;23.00;99.90
3300;DHT22;1662;49.310;8.134;2023-07-16T10:15:57;23.10;99.90
3300;DHT22;1662;49.310;8.134;2023-07-16T10:18:27;23.00;99.90
3300;DHT22;1662;49.310;8.134;2023-07-16T10:21:04;23.20;99.90
3300;DHT22;1662;49.310;8.134;2023-07-16T10:26:05;23.40;99.90
3300;DHT22;1662;49.310;8.134;2023-07-16T10:28:34;23.40;99.90
3300;DHT22;1662;49.310;8.134;2023-07-16T10:31:00;23.30;99.90
3300;DHT22;1662;49.310;8.134;2023-07-16T10:33:25;23.20;99.90
3300;DHT22;1662;49.310;8.134;2023-07-16T10:35:51;23.10;99.90
3300;DHT22;1662;49.310;8.134;2023-07-16T10:38:17;23.00;99.90
3300;DHT22;1662;49.310;8.134;2023-07-16T10:40:45;22.80;99.90
3300;DHT22;1662;49.310;8.134;2023-07-16T10:43:12;22.70;99.90
3300;DHT22;1662;49.310;8.134;2023-07-16T10:45:38;22.90;99.90
3300;DHT22;1662;49.310;8.134;2023-07-16T10:48:04;23.00;99.90
3300;DHT22;1662;49.310;8.134;2023-07-16T10:50:34;23.20;99.90
3300;DHT22;1662;49.310;8.134;2023-07-16T10:53:00;23.30;99.90
3300;DHT22;1662;49.310;8.134;2023-07-16T10:55:28;23.60;99.90
3300;DHT22;1662;49.310;8.134;2023-07-16T10:57:53;23.90;99.90
3300;DHT22;1662;49.310;8.134;2023-07-16T11:00:21;24.10;99.90
3300;DHT22;1662;49.310;8.134;2023-07-16T11:02:47;24.30;99.90
3300;DHT22;1662;49.310;8.134;2023-07-16T11:05:14;24.40;99.90
3300;DHT22;1662;49.310;8.134;2023-07-16T11:08:01;24.60;99.90
3300;DHT22;1662;49.310;8.134;2023-07-16T11:10:29;24.60;99.90
3300;DHT22;1662;49.310;8.134;2023-07-16T11:12:55;24.20;99.90
3300;DHT22;1662;49.310;8.134;2023-07-16T11:15:34;24.00;99.90
3300;DHT22;1662;49.310;8.134;2023-07-16T11:18:01;23.60;99.90
3300;DHT22;1662;49.310;8.134;2023-07-16T11:20:29;23.60;99.90
3300;DHT22;1662;49.310;8.134;2023-07-16T11:22:58;23.40;99.90
3300;DHT22;1662;49.310;8.134;2023-07-16T11:25:24;23.60;99.90
3300;DHT22;1662;49.310;8.134;2023-07-16T11:27:54;23.70;99.90
3300;DHT22;1662;49.310;8.134;2023-07-16T11:30:24;23.60;99.90
3300;DHT22;1662;49.310;8.134;2023-07-16T11:32:50;23.50;99.90
3300;DHT22;1662;49.310;8.134;2023-07-16T11:35:17;23.60;99.90
3300;DHT22;1662;49.310;8.134;2023-07-16T11:37:46;23.80;99.90
3300;DHT22;1662;49.310;8.134;2023-07-16T11:40:17;23.90;99.90
3300;DHT22;1662;49.310;8.134;2023-07-16T11:42:43;24.20;99.90
3300;DHT22;1662;49.310;8.134;2023-07-16T11:45:17;24.40;99.90
3300;DHT22;1662;49.310;8.134;2023-07-16T11:47:43;24.60;99.90
3300;DHT22;1662;49.310;8.134;2023-07-16T11:50:09;24.60;99.90
3300;DHT22;1662;49.310;8.134;2023-07-16T11:52:38;24.70;99.90
3300;DHT22;1662;49.310;8.134;2023-07-16T11:55:04;24.70;99.90
3300;DHT22;1662;49.310;8.134;2023-07-16T11:57:31;24.80;99.90
3300;DHT22;1662;49.310;8.134;2023-07-16T11:59:56;25.00;99.90
3300;DHT22;1662;49.310;8.134;2023-07-16T12:02:22;25.20;99.90
3300;DHT22;1662;49.310;8.134;2023-07-16T12:04:50;25.50;99.90
3300;DHT22;1662;49.310;8.134;2023-07-16T12:07:31;25.70;99.90
3300;DHT22;1662;49.310;8.134;2023-07-16T12:09:57;25.70;99.90
3300;DHT22;1662;49.310;8.134;2023-07-16T12:12:23;25.70;99.90
3300;DHT22;1662;49.310;8.134;2023-07-16T12:14:48;25.50;99.90
3300;DHT22;1662;49.310;8.134;2023-07-16T12:17:14;25.70;99.90
3300;DHT22;1662;49.310;8.134;2023-07-16T12:19:40;25.70;99.90
3300;DHT22;1662;49.310;8.134;2023-07-16T12:22:05;26.00;99.90
3300;DHT22;1662;49.310;8.134;2023-07-16T12:24:31;26.20;98.90
3300;DHT22;1662;49.310;8.134;2023-07-16T12:26:58;26.00;99.30
3300;DHT22;1662;49.310;8.134;2023-07-16T12:29:23;26.30;99.40
3300;DHT22;1662;49.310;8.134;2023-07-16T12:31:49;26.20;96.90
3300;DHT22;1662;49.310;8.134;2023-07-16T12:34:15;25.90;97.80
3300;DHT22;1662;49.310;8.134;2023-07-16T12:36:41;25.90;98.10
3300;DHT22;1662;49.310;8.134;2023-07-16T12:39:09;25.80;97.60
3300;DHT22;1662;49.310;8.134;2023-07-16T12:41:35;25.80;97.80
3300;DHT22;1662;49.310;8.134;2023-07-16T12:44:00;25.70;97.70
3300;DHT22;1662;49.310;8.134;2023-07-16T12:46:26;25.80;97.70
3300;DHT22;1662;49.310;8.134;2023-07-16T12:48:52;25.90;97.90
3300;DHT22;1662;49.310;8.134;2023-07-16T12:51:17;25.80;95.80
3300;DHT22;1662;49.310;8.134;2023-07-16T12:53:43;25.70;96.50
3300;DHT22;1662;49.310;8.134;2023-07-16T12:56:09;25.60;96.20
3300;DHT22;1662;49.310;8.134;2023-07-16T12:58:35;25.60;96.40
3300;DHT22;1662;49.310;8.134;2023-07-16T13:01:01;25.70;97.90
3300;DHT22;1662;49.310;8.134;2023-07-16T13:03:26;25.80;96.60
3300;DHT22;1662;49.310;8.134;2023-07-16T13:05:52;26.10;96.40
3300;DHT22;1662;49.310;8.134;2023-07-16T13:08:17;26.10;94.50
3300;DHT22;1662;49.310;8.134;2023-07-16T13:10:43;26.00;95.50
3300;DHT22;1662;49.310;8.134;2023-07-16T13:13:11;26.10;95.50
3300;DHT22;1662;49.310;8.134;2023-07-16T13:15:39;26.50;96.20
3300;DHT22;1662;49.310;8.134;2023-07-16T13:18:05;27.00;95.10
3300;DHT22;1662;49.310;8.134;2023-07-16T13:20:31;26.90;93.60
3300;DHT22;1662;49.310;8.134;2023-07-16T13:22:57;26.70;93.70
3300;DHT22;1662;49.310;8.134;2023-07-16T13:25:22;26.60;94.00
3300;DHT22;1662;49.310;8.134;2023-07-16T13:27:48;26.40;93.10
3300;DHT22;1662;49.310;8.134;2023-07-16T13:30:14;26.60;93.40
3300;DHT22;1662;49.310;8.134;2023-07-16T13:32:40;27.20;94.50
3300;DHT22;1662;49.310;8.134;2023-07-16T13:35:06;27.30;94.30
3300;DHT22;1662;49.310;8.134;2023-07-16T13:37:31;27.60;93.20
3300;DHT22;1662;49.310;8.134;2023-07-16T13:39:57;27.80;92.30
3300;DHT22;1662;49.310;8.134;2023-07-16T13:42:23;27.80;90.70
3300;DHT22;1662;49.310;8.134;2023-07-16T13:44:48;27.70;90.30
3300;DHT22;1662;49.310;8.134;2023-07-16T13:47:14;27.60;88.00
3300;DHT22;1662;49.310;8.134;2023-07-16T13:49:42;27.50;90.10
3300;DHT22;1662;49.310;8.134;2023-07-16T13:52:08;27.70;89.50
3300;DHT22;1662;49.310;8.134;2023-07-16T13:54:33;27.90;88.80
3300;DHT22;1662;49.310;8.134;2023-07-16T13:56:59;27.80;88.80
3300;DHT22;1662;49.310;8.134;2023-07-16T13:59:24;28.00;87.70
3300;DHT22;1662;49.310;8.134;2023-07-16T14:01:59;28.00;87.70
3300;DHT22;1662;49.310;8.134;2023-07-16T14:04:26;28.20;87.50
3300;DHT22;1662;49.310;8.134;2023-07-16T14:06:52;28.40;86.80
3300;DHT22;1662;49.310;8.134;2023-07-16T14:09:18;28.20;86.60
3300;DHT22;1662;49.310;8.134;2023-07-16T14:11:45;28.30;85.80
3300;DHT22;1662;49.310;8.134;2023-07-16T14:14:20;28.40;84.60
3300;DHT22;1662;49.310;8.134;2023-07-16T14:16:46;28.50;82.10
3300;DHT22;1662;49.310;8.134;2023-07-16T14:19:11;28.60;83.00
3300;DHT22;1662;49.310;8.134;2023-07-16T14:21:38;28.80;84.30
3300;DHT22;1662;49.310;8.134;2023-07-16T14:24:04;29.00;83.20
3300;DHT22;1662;49.310;8.134;2023-07-16T14:26:30;29.00;81.50
3300;DHT22;1662;49.310;8.134;2023-07-16T14:28:58;29.00;83.50
3300;DHT22;1662;49.310;8.134;2023-07-16T14:31:24;28.90;82.60
3300;DHT22;1662;49.310;8.134;2023-07-16T14:33:50;28.90;81.90
3300;DHT22;1662;49.310;8.134;2023-07-16T14:36:17;28.90;81.10
3300;DHT22;1662;49.310;8.134;2023-07-16T14:38:43;28.80;82.60
3300;DHT22;1662;49.310;8.134;2023-07-16T14:41:09;28.70;82.20
3300;DHT22;1662;49.310;8.134;2023-07-16T14:43:35;28.80;80.50
3300;DHT22;1662;49.310;8.134;2023-07-16T14:46:01;28.80;82.00
3300;DHT22;1662;49.310;8.134;2023-07-16T14:48:28;28.90;82.10
3300;DHT22;1662;49.310;8.134;2023-07-16T14:50:54;28.90;78.80
3300;DHT22;1662;49.310;8.134;2023-07-16T14:53:19;29.00;82.60
3300;DHT22;1662;49.310;8.134;2023-07-16T14:55:52;29.20;81.50
3300;DHT22;1662;49.310;8.134;2023-07-16T14:58:19;29.50;81.40
3300;DHT22;1662;49.310;8.134;2023-07-16T15:00:45;29.30;79.50
3300;DHT22;1662;49.310;8.134;2023-07-16T15:03:11;29.10;81.30
3300;DHT22;1662;49.310;8.134;2023-07-16T15:05:37;29.30;79.60
3300;DHT22;1662;49.310;8.134;2023-07-16T15:08:06;29.50;79.70
3300;DHT22;1662;49.310;8.134;2023-07-16T15:10:32;29.30;78.60
3300;DHT22;1662;49.310;8.134;2023-07-16T15:12:58;29.50;78.70
3300;DHT22;1662;49.310;8.134;2023-07-16T15:15:23;29.60;77.90
3300;DHT22;1662;49.310;8.134;2023-07-16T15:17:49;29.50;77.70
3300;DHT22;1662;49.310;8.134;2023-07-16T15:20:15;29.20;78.80
3300;DHT22;1662;49.310;8.134;2023-07-16T15:22:41;29.00;78.90
3300;DHT22;1662;49.310;8.134;2023-07-16T15:25:07;29.20;79.70
3300;DHT22;1662;49.310;8.134;2023-07-16T15:27:35;29.50;78.40
3300;DHT22;1662;49.310;8.134;2023-07-16T15:30:01;29.40;77.10
3300;DHT22;1662;49.310;8.134;2023-07-16T15:32:27;29.40;76.70
3300;DHT22;1662;49.310;8.134;2023-07-16T15:34:53;29.10;77.60
3300;DHT22;1662;49.310;8.134;2023-07-16T15:37:21;29.20;77.90
3300;DHT22;1662;49.310;8.134;2023-07-16T15:39:46;29.40;77.60
3300;DHT22;1662;49.310;8.134;2023-07-16T15:42:12;29.60;78.00
3300;DHT22;1662;49.310;8.134;2023-07-16T15:44:38;29.60;76.00
3300;DHT22;1662;49.310;8.134;2023-07-16T15:47:06;29.50;76.00
3300;DHT22;1662;49.310;8.134;2023-07-16T15:49:31;29.60;76.50
3300;DHT22;1662;49.310;8.134;2023-07-16T15:51:57;29.60;76.50
3300;DHT22;1662;49.310;8.134;2023-07-16T15:54:22;29.30;77.10
3300;DHT22;1662;49.310;8.134;2023-07-16T15:56:48;29.00;76.30
3300;DHT22;1662;49.310;8.134;2023-07-16T15:59:14;29.00;77.30
3300;DHT22;1662;49.310;8.134;2023-07-16T16:01:41;29.20;78.40
3300;DHT22;1662;49.310;8.134;2023-07-16T16:04:07;29.40;78.10
3300;DHT22;1662;49.310;8.134;2023-07-16T16:06:33;29.50;77.00
3300;DHT22;1662;49.310;8.134;2023-07-16T16:08:58;29.50;77.20